UB3APB-WY>APRS,TCPIP*,qAC,T2TROITSK:!4435.05N/04007.56E_000/000t070h54 Temp 25.1/21.2/21.3/20.8C Hum 54.0% (2026-05-07 16:22:44)
UB3APB-WY>APRS,TCPIP*,qAC,T2MOSCOW:!4435.05N/04007.56E_000/000t069h53 Temp 25.0/20.8/21.6/20.8C Hum 53.0% (2026-05-07 16:27:50)
UB3APB-WY>APRS,TCPIP*,qAC,T2ADG:!4435.05N/04007.56E_000/000t070h54 Temp 25.0/21.2/21.7/21.0C Hum 54.0% (2026-05-07 16:32:56)
UB3APB-WY>APRS,TCPIP*,qAC,T2VENYOV:!4435.05N/04007.56E_000/000t070h55 Temp 24.9/21.0/21.3/21.0C Hum 55.0% (2026-05-07 16:38:01)
UB3APB-WY>APRS,TCPIP*,qAC,T2ADG:!4435.05N/04007.56E_000/000t070h55 Temp 24.9/20.9/21.4/21.1C Hum 55.0% (2026-05-07 16:43:07)
UB3APB-WY>APRS,TCPIP*,qAC,T2ADG:!4435.05N/04007.56E_000/000t071h56 Temp 24.9/21.4/21.5/21.2C Hum 56.0% (2026-05-07 16:48:13)
UB3APB-WY>APRS,TCPIP*,qAC,T2VENYOV:!4435.05N/04007.56E_000/000t070h55 Temp 24.9/21.0/20.9/21.2C Hum 55.0% (2026-05-07 16:53:19)
UB3APB-WY>APRS,TCPIP*,qAC,T2RUSSIA2:!4435.05N/04007.56E_000/000t069h57 Temp 24.9/20.7/21.1/21.4C Hum 57.0% (2026-05-07 16:58:25)
UB3APB-WY>APRS,TCPIP*,qAC,T2ADG:!4435.05N/04007.56E_000/000t070h57 Temp 24.8/20.9/21.1/21.5C Hum 57.0% (2026-05-07 17:03:30)
UB3APB-WY>APRS,TCPIP*,qAC,T2MOSCOW:!4435.05N/04007.56E_000/000t069h58 Temp 24.8/20.5/20.3/21.6C Hum 58.0% (2026-05-07 17:08:36)
UB3APB-WY>APRS,TCPIP*,qAC,T2TROITSK:!4435.05N/04007.56E_000/000t069h59 Temp 24.8/20.5/20.5/21.7C Hum 59.0% (2026-05-07 17:13:43)
UB3APB-WY>APRS,TCPIP*,qAC,T2ADG:!4435.05N/04007.56E_000/000t069h58 Temp 24.8/20.4/20.7/21.8C Hum 58.0% (2026-05-07 17:18:48)
UB3APB-WY>APRS,TCPIP*,qAC,T2RUSSIA2:!4435.05N/04007.56E_000/000t069h58 Temp 24.8/20.3/20.6/21.8C Hum 58.0% (2026-05-07 17:23:54)
UB3APB-WY>APRS,TCPIP*,qAC,T2VENYOV:!4435.05N/04007.56E_000/000t069h58 Temp 24.7/20.4/20.5/21.8C Hum 58.0% (2026-05-07 17:29:00)
UB3APB-WY>APRS,TCPIP*,qAC,T2TROITSK:!4435.05N/04007.56E_000/000t069h59 Temp 24.7/20.4/20.7/21.9C Hum 59.0% (2026-05-07 17:34:05)
UB3APB-WY>APRS,TCPIP*,qAC,T2MOSCOW:!4435.05N/04007.56E_000/000t073h53 Temp 24.7/22.8/20.5/21.8C Hum 53.0% (2026-05-07 17:39:12)
UB3APB-WY>APRS,TCPIP*,qAC,T2ADG:!4435.05N/04007.56E_000/000t073h53 Temp 24.7/22.8/20.4/21.8C Hum 53.0% (2026-05-07 17:44:17)
UB3APB-WY>APRS,TCPIP*,qAC,T2ADG:!4435.05N/04007.56E_000/000t070h56 Temp 24.6/21.2/20.6/21.6C Hum 56.0% (2026-05-07 17:49:23)
UB3APB-WY>APRS,TCPIP*,qAC,T2RUSSIA2:!4435.05N/04007.56E_000/000t073h52 Temp 24.6/22.6/20.6/21.6C Hum 52.0% (2026-05-07 17:54:28)
UB3APB-WY>APRS,TCPIP*,qAC,T2TROITSK:!4435.05N/04007.56E_000/000t073h51 Temp 24.6/22.9/20.6/21.6C Hum 51.0% (2026-05-07 17:59:35)
UB3APB-WY>APRS,TCPIP*,qAC,T2MOSCOW:!4435.05N/04007.56E_000/000t073h52 Temp 24.6/22.6/20.4/21.4C Hum 52.0% (2026-05-07 18:04:41)
UB3APB-WY>APRS,TCPIP*,qAC,T2ADG:!4435.05N/04007.56E_000/000t072h51 Temp 24.6/22.1/20.1/21.3C Hum 51.0% (2026-05-07 18:09:46)
UB3APB-WY>APRS,TCPIP*,qAC,T2VENYOV:!4435.05N/04007.56E_000/000t073h49 Temp 24.6/22.8/20.1/21.1C Hum 49.0% (2026-05-07 18:14:53)
UB3APB-WY>APRS,TCPIP*,qAC,T2RUSSIA2:!4435.05N/04007.56E_000/000t072h50 Temp 24.5/22.0/20.1/21.0C Hum 50.0% (2026-05-07 18:19:59)
UB3APB-WY>APRS,TCPIP*,qAC,T2TROITSK:!4435.05N/04007.56E_000/000t070h51 Temp 24.4/21.2/19.8/21.0C Hum 51.0% (2026-05-07 18:25:06)
UB3APB-WY>APRS,TCPIP*,qAC,T2ADG:!4435.05N/04007.56E_000/000t070h50 Temp 24.4/21.3/19.6/20.9C Hum 50.0% (2026-05-07 18:30:12)
UB3APB-WY>APRS,TCPIP*,qAC,T2RUSSIA2:!4435.05N/04007.56E_000/000t066h55 Temp 24.4/18.9/19.4/20.9C Hum 55.0% (2026-05-07 18:35:18)
UB3APB-WY>APRS,TCPIP*,qAC,T2RUSSIA2:!4435.05N/04007.56E_000/000t066h56 Temp 24.5/18.8/19.1/20.8C Hum 56.0% (2026-05-07 18:40:26)
UB3APB-WY>APRS,TCPIP*,qAC,T2TROITSK:!4435.05N/04007.56E_000/000t065h57 Temp 24.4/18.4/19.0/20.7C Hum 57.0% (2026-05-07 18:45:32)
UB3APB-WY>APRS,TCPIP*,qAC,T2MOSCOW:!4435.05N/04007.56E_000/000t065h58 Temp 24.5/18.2/18.6/20.6C Hum 58.0% (2026-05-07 18:50:38)
UB3APB-WY>APRS,TCPIP*,qAC,T2ADG:!4435.05N/04007.56E_000/000t064h59 Temp 24.4/17.9/18.5/20.5C Hum 59.0% (2026-05-07 18:55:44)
UB3APB-WY>APRS,TCPIP*,qAC,T2MOSCOW:!4435.05N/04007.56E_000/000t064h60 Temp 24.5/17.8/18.3/20.5C Hum 60.0% (2026-05-07 19:00:49)
UB3APB-WY>APRS,TCPIP*,qAC,T2RUSSIA2:!4435.05N/04007.56E_000/000t064h60 Temp 24.4/17.8/18.2/20.4C Hum 60.0% (2026-05-07 19:05:55)
UB3APB-WY>APRS,TCPIP*,qAC,T2TROITSK:!4435.05N/04007.56E_000/000t062h67 Temp 24.3/16.7/17.4/20.4C Hum 67.0% (2026-05-07 19:11:01)
UB3APB-WY>APRS,TCPIP*,qAC,T2ADG:!4435.05N/04007.56E_000/000t060h73 Temp 24.3/15.8/16.8/20.3C Hum 73.0% (2026-05-07 19:16:07)
UB3APB-WY>APRS,TCPIP*,qAC,T2VENYOV:!4435.05N/04007.56E_000/000t060h75 Temp 24.4/15.4/16.6/20.3C Hum 75.0% (2026-05-07 19:21:13)
UB3APB-WY>APRS,TCPIP*,qAC,T2TROITSK:!4435.05N/04007.56E_000/000t059h78 Temp 24.4/15.1/16.3/20.3C Hum 78.0% (2026-05-07 19:26:19)
UB3APB-WY>APRS,TCPIP*,qAC,T2MOSCOW:!4435.05N/04007.56E_000/000t058h80 Temp 24.3/14.6/16.0/20.3C Hum 80.0% (2026-05-07 19:31:25)
UB3APB-WY>APRS,TCPIP*,qAC,T2ADG:!4435.05N/04007.56E_000/000t058h81 Temp 24.4/14.5/15.8/20.2C Hum 81.0% (2026-05-07 19:36:30)
UB3APB-WY>APRS,TCPIP*,qAC,T2RUSSIA2:!4435.05N/04007.56E_000/000t058h82 Temp 24.3/14.4/15.7/20.1C Hum 82.0% (2026-05-07 19:41:36)
UB3APB-WY>APRS,TCPIP*,qAC,T2VENYOV:!4435.05N/04007.56E_000/000t058h81 Temp 24.5/14.4/15.6/20.1C Hum 81.0% (2026-05-07 19:46:44)
UB3APB-WY>APRS,TCPIP*,qAC,T2ADG:!4435.05N/04007.56E_000/000t058h82 Temp 24.5/14.4/15.5/20.1C Hum 82.0% (2026-05-07 19:51:50)
UB3APB-WY>APRS,TCPIP*,qAC,T2TROITSK:!4435.05N/04007.56E_000/000t058h81 Temp 24.4/14.5/15.6/20.0C Hum 81.0% (2026-05-07 19:56:56)
UB3APB-WY>APRS,TCPIP*,qAC,T2MOSCOW:!4435.05N/04007.56E_000/000t058h81 Temp 24.5/14.6/15.6/20.0C Hum 81.0% (2026-05-07 20:02:02)
UB3APB-WY>APRS,TCPIP*,qAC,T2VENYOV:!4435.05N/04007.56E_000/000t058h82 Temp 24.4/14.6/15.6/19.9C Hum 82.0% (2026-05-07 20:07:08)
UB3APB-WY>APRS,TCPIP*,qAC,T2MOSCOW:!4435.05N/04007.56E_000/000t058h82 Temp 24.5/14.6/15.6/19.9C Hum 82.0% (2026-05-07 20:12:14)
UB3APB-WY>APRS,TCPIP*,qAC,T2RUSSIA2:!4435.05N/04007.56E_000/000t058h82 Temp 24.6/14.6/15.6/19.8C Hum 82.0% (2026-05-07 20:17:20)
UB3APB-WY>APRS,TCPIP*,qAC,T2VENYOV:!4435.05N/04007.56E_000/000t058h83 Temp 24.4/14.5/15.6/19.8C Hum 83.0% (2026-05-07 20:22:26)
UB3APB-WY>APRS,TCPIP*,qAC,T2TROITSK:!4435.05N/04007.56E_000/000t058h83 Temp 24.4/14.4/15.5/19.8C Hum 83.0% (2026-05-07 20:27:32)
UB3APB-WY>APRS,TCPIP*,qAC,T2MOSCOW:!4435.05N/04007.56E_000/000t058h83 Temp 24.4/14.4/15.4/19.7C Hum 83.0% (2026-05-07 20:32:38)
UB3APB-WY>APRS,TCPIP*,qAC,T2TROITSK:!4435.05N/04007.56E_000/000t058h83 Temp 24.4/14.4/15.3/19.7C Hum 83.0% (2026-05-07 20:37:44)
UB3APB-WY>APRS,TCPIP*,qAC,T2ADG:!4435.05N/04007.56E_000/000t058h84 Temp 24.3/14.4/15.3/19.7C Hum 84.0% (2026-05-07 20:42:50)
UB3APB-WY>APRS,TCPIP*,qAC,T2ADG:!4435.05N/04007.56E_000/000t058h84 Temp 24.4/14.4/15.5/19.6C Hum 84.0% (2026-05-07 20:47:56)
UB3APB-WY>APRS,TCPIP*,qAC,T2VENYOV:!4435.05N/04007.56E_000/000t058h83 Temp 24.3/14.5/15.4/19.6C Hum 83.0% (2026-05-07 20:53:02)
UB3APB-WY>APRS,TCPIP*,qAC,T2TROITSK:!4435.05N/04007.56E_000/000t058h83 Temp 24.4/14.4/15.4/19.6C Hum 83.0% (2026-05-07 20:58:08)
UB3APB-WY>APRS,TCPIP*,qAC,T2ADG:!4435.05N/04007.56E_000/000t058h83 Temp 24.4/14.4/15.3/19.6C Hum 83.0% (2026-05-07 21:03:13)
UB3APB-WY>APRS,TCPIP*,qAC,T2TROITSK:!4435.05N/04007.56E_000/000t058h83 Temp 24.4/14.3/15.4/19.5C Hum 83.0% (2026-05-07 21:08:19)
UB3APB-WY>APRS,TCPIP*,qAC,T2MOSCOW:!4435.05N/04007.56E_000/000t058h84 Temp 24.4/14.4/15.4/19.5C Hum 84.0% (2026-05-07 21:13:25)
UB3APB-WY>APRS,TCPIP*,qAC,T2VENYOV:!4435.05N/04007.56E_000/000t058h85 Temp 24.3/14.2/15.1/19.4C Hum 85.0% (2026-05-07 21:18:31)
UB3APB-WY>APRS,TCPIP*,qAC,T2ADG:!4435.05N/04007.56E_000/000t057h86 Temp 24.3/14.0/15.2/19.4C Hum 86.0% (2026-05-07 21:23:37)
UB3APB-WY>APRS,TCPIP*,qAC,T2VENYOV:!4435.05N/04007.56E_000/000t057h85 Temp 24.3/14.0/15.1/19.3C Hum 85.0% (2026-05-07 21:28:43)
UB3APB-WY>APRS,TCPIP*,qAC,T2TROITSK:!4435.05N/04007.56E_000/000t057h85 Temp 24.2/14.0/15.1/19.3C Hum 85.0% (2026-05-07 21:33:49)
UB3APB-WY>APRS,TCPIP*,qAC,T2ADG:!4435.05N/04007.56E_000/000t057h85 Temp 24.3/14.0/15.0/19.3C Hum 85.0% (2026-05-07 21:38:55)
UB3APB-WY>APRS,TCPIP*,qAC,T2VENYOV:!4435.05N/04007.56E_000/000t057h85 Temp 24.3/13.9/15.0/19.3C Hum 85.0% (2026-05-07 21:44:02)
UB3APB-WY>APRS,TCPIP*,qAC,T2MOSCOW:!4435.05N/04007.56E_000/000t057h85 Temp 24.3/13.9/15.0/19.2C Hum 85.0% (2026-05-07 21:49:08)
UB3APB-WY>APRS,TCPIP*,qAC,T2RUSSIA2:!4435.05N/04007.56E_000/000t057h86 Temp 24.4/13.7/14.8/19.2C Hum 86.0% (2026-05-07 21:54:14)
UB3APB-WY>APRS,TCPIP*,qAC,T2VENYOV:!4435.05N/04007.56E_000/000t057h86 Temp 24.4/13.7/14.8/19.2C Hum 86.0% (2026-05-07 21:59:20)
UB3APB-WY>APRS,TCPIP*,qAC,T2VENYOV:!4435.05N/04007.56E_000/000t056h86 Temp 24.4/13.5/14.7/19.1C Hum 86.0% (2026-05-07 22:04:26)
UB3APB-WY>APRS,TCPIP*,qAC,T2ADG:!4435.05N/04007.56E_000/000t056h87 Temp 24.5/13.2/14.6/19.1C Hum 87.0% (2026-05-07 22:09:32)
UB3APB-WY>APRS,TCPIP*,qAC,T2VENYOV:!4435.05N/04007.56E_000/000t055h88 Temp 24.5/12.9/14.4/19.1C Hum 88.0% (2026-05-07 22:14:37)
UB3APB-WY>APRS,TCPIP*,qAC,T2TROITSK:!4435.05N/04007.56E_000/000t055h89 Temp 24.6/13.0/14.4/19.1C Hum 89.0% (2026-05-07 22:19:43)
UB3APB-WY>APRS,TCPIP*,qAC,T2VENYOV:!4435.05N/04007.56E_000/000t055h90 Temp 24.7/12.9/14.3/19.0C Hum 90.0% (2026-05-07 22:24:49)
UB3APB-WY>APRS,TCPIP*,qAC,T2TROITSK:!4435.05N/04007.56E_000/000t055h90 Temp 24.6/12.9/14.3/19.0C Hum 90.0% (2026-05-07 22:29:55)
UB3APB-WY>APRS,TCPIP*,qAC,T2VENYOV:!4435.05N/04007.56E_000/000t055h91 Temp 24.7/12.7/14.2/18.9C Hum 91.0% (2026-05-07 22:35:01)
UB3APB-WY>APRS,TCPIP*,qAC,T2MOSCOW:!4435.05N/04007.56E_000/000t055h91 Temp 24.8/12.7/14.1/18.9C Hum 91.0% (2026-05-07 22:40:07)
UB3APB-WY>APRS,TCPIP*,qAC,T2ADG:!4435.05N/04007.56E_000/000t055h92 Temp 24.8/12.7/14.1/18.8C Hum 92.0% (2026-05-07 22:45:13)
UB3APB-WY>APRS,TCPIP*,qAC,T2MOSCOW:!4435.05N/04007.56E_000/000t054h93 Temp 24.8/12.3/13.6/18.8C Hum 93.0% (2026-05-07 22:50:19)
UB3APB-WY>APRS,TCPIP*,qAC,T2ADG:!4435.05N/04007.56E_000/000t054h93 Temp 24.8/12.0/13.3/18.8C Hum 93.0% (2026-05-07 22:55:25)
UB3APB-WY>APRS,TCPIP*,qAC,T2RUSSIA2:!4435.05N/04007.56E_000/000t053h94 Temp 24.9/11.9/13.3/18.7C Hum 94.0% (2026-05-07 23:00:31)
UB3APB-WY>APRS,TCPIP*,qAC,T2VENYOV:!4435.05N/04007.56E_000/000t054h94 Temp 25.0/12.1/13.3/18.7C Hum 94.0% (2026-05-07 23:05:38)
UB3APB-WY>APRS,TCPIP*,qAC,T2TROITSK:!4435.05N/04007.56E_000/000t053h95 Temp 25.0/11.6/12.7/18.6C Hum 95.0% (2026-05-07 23:10:44)
UB3APB-WY>APRS,TCPIP*,qAC,T2VENYOV:!4435.05N/04007.56E_000/000t053h95 Temp 25.0/11.8/12.9/18.6C Hum 95.0% (2026-05-07 23:15:50)
UB3APB-WY>APRS,TCPIP*,qAC,T2TROITSK:!4435.05N/04007.56E_000/000t054h94 Temp 24.8/12.2/12.7/18.5C Hum 94.0% (2026-05-07 23:20:56)
UB3APB-WY>APRS,TCPIP*,qAC,T2RUSSIA2:!4435.05N/04007.56E_000/000t053h95 Temp 24.9/11.6/12.5/18.5C Hum 95.0% (2026-05-07 23:26:02)
UB3APB-WY>APRS,TCPIP*,qAC,T2VENYOV:!4435.05N/04007.56E_000/000t053h95 Temp 24.9/11.7/12.6/18.4C Hum 95.0% (2026-05-07 23:31:09)
UB3APB-WY>APRS,TCPIP*,qAC,T2TROITSK:!4435.05N/04007.56E_000/000t053h95 Temp 24.9/11.6/12.5/18.4C Hum 95.0% (2026-05-07 23:36:15)
UB3APB-WY>APRS,TCPIP*,qAC,T2ADG:!4435.05N/04007.56E_000/000t053h96 Temp 25.0/11.4/12.3/18.3C Hum 96.0% (2026-05-07 23:41:21)
UB3APB-WY>APRS,TCPIP*,qAC,T2VENYOV:!4435.05N/04007.56E_000/000t052h96 Temp 24.8/11.3/12.3/18.3C Hum 96.0% (2026-05-07 23:46:28)
UB3APB-WY>APRS,TCPIP*,qAC,T2MOSCOW:!4435.05N/04007.56E_000/000t052h96 Temp 24.9/11.0/12.1/18.3C Hum 96.0% (2026-05-07 23:51:34)
UB3APB-WY>APRS,TCPIP*,qAC,T2VENYOV:!4435.05N/04007.56E_000/000t052h96 Temp 24.8/11.1/12.0/18.3C Hum 96.0% (2026-05-07 23:56:40)
UB3APB-WY>APRS,TCPIP*,qAC,T2MOSCOW:!4435.05N/04007.56E_000/000t052h97 Temp 24.8/11.0/12.0/18.2C Hum 97.0% (2026-05-08 00:01:45)
UB3APB-WY>APRS,TCPIP*,qAC,T2TROITSK:!4435.05N/04007.56E_000/000t052h97 Temp 24.8/10.9/12.0/18.1C Hum 97.0% (2026-05-08 00:06:51)
UB3APB-WY>APRS,TCPIP*,qAC,T2MOSCOW:!4435.05N/04007.56E_000/000t051h97 Temp 24.8/10.8/11.9/18.1C Hum 97.0% (2026-05-08 00:11:57)
UB3APB-WY>APRS,TCPIP*,qAC,T2VENYOV:!4435.05N/04007.56E_000/000t051h97 Temp 24.7/10.8/11.7/18.0C Hum 97.0% (2026-05-08 00:17:03)
UB3APB-WY>APRS,TCPIP*,qAC,T2TROITSK:!4435.05N/04007.56E_000/000t051h97 Temp 24.8/10.6/11.7/18.0C Hum 97.0% (2026-05-08 00:22:09)
UB3APB-WY>APRS,TCPIP*,qAC,T2VENYOV:!4435.05N/04007.56E_000/000t051h97 Temp 24.7/10.6/11.7/17.9C Hum 97.0% (2026-05-08 00:27:16)
UB3APB-WY>APRS,TCPIP*,qAC,T2MOSCOW:!4435.05N/04007.56E_000/000t051h97 Temp 24.6/10.4/11.5/17.9C Hum 97.0% (2026-05-08 00:32:23)
UB3APB-WY>APRS,TCPIP*,qAC,T2ADG:!4435.05N/04007.56E_000/000t051h98 Temp 24.6/10.5/11.6/17.8C Hum 98.0% (2026-05-08 00:37:28)
UB3APB-WY>APRS,TCPIP*,qAC,T2RUSSIA2:!4435.05N/04007.56E_000/000t051h98 Temp 24.5/10.3/11.5/17.8C Hum 98.0% (2026-05-08 00:42:34)
UB3APB-WY>APRS,TCPIP*,qAC,T2VENYOV:!4435.05N/04007.56E_000/000t050h98 Temp 24.5/10.2/11.5/17.8C Hum 98.0% (2026-05-08 00:47:40)
UB3APB-WY>APRS,TCPIP*,qAC,T2TROITSK:!4435.05N/04007.56E_000/000t050h98 Temp 24.5/10.1/11.3/17.7C Hum 98.0% (2026-05-08 00:52:46)
UB3APB-WY>APRS,TCPIP*,qAC,T2MOSCOW:!4435.05N/04007.56E_000/000t050h98 Temp 24.3/10.2/11.3/17.6C Hum 98.0% (2026-05-08 00:57:52)
UB3APB-WY>APRS,TCPIP*,qAC,T2RUSSIA2:!4435.05N/04007.56E_000/000t050h98 Temp 24.4/10.2/11.2/17.6C Hum 98.0% (2026-05-08 01:02:58)
UB3APB-WY>APRS,TCPIP*,qAC,T2VENYOV:!4435.05N/04007.56E_000/000t050h99 Temp 24.5/10.1/11.2/17.6C Hum 99.0% (2026-05-08 01:08:04)
UB3APB-WY>APRS,TCPIP*,qAC,T2TROITSK:!4435.05N/04007.56E_000/000t050h99 Temp 24.4/10.0/11.3/17.5C Hum 99.0% (2026-05-08 01:13:10)
UB3APB-WY>APRS,TCPIP*,qAC,T2ADG:!4435.05N/04007.56E_000/000t049h99 Temp 24.5/9.7/11.0/17.4C Hum 99.0% (2026-05-08 01:18:16)
UB3APB-WY>APRS,TCPIP*,qAC,T2TROITSK:!4435.05N/04007.56E_000/000t049h99 Temp 24.4/9.7/10.9/17.4C Hum 99.0% (2026-05-08 01:23:22)
UB3APB-WY>APRS,TCPIP*,qAC,T2MOSCOW:!4435.05N/04007.56E_000/000t050h99 Temp 24.3/9.8/11.0/17.3C Hum 99.0% (2026-05-08 01:28:28)
UB3APB-WY>APRS,TCPIP*,qAC,T2ADG:!4435.05N/04007.56E_000/000t049h99 Temp 24.4/9.7/10.8/17.3C Hum 99.0% (2026-05-08 01:33:35)
UB3APB-WY>APRS,TCPIP*,qAC,T2VENYOV:!4435.05N/04007.56E_000/000t049h99 Temp 24.4/9.5/10.7/17.3C Hum 99.0% (2026-05-08 01:38:41)
UB3APB-WY>APRS,TCPIP*,qAC,T2MOSCOW:!4435.05N/04007.56E_000/000t049h99 Temp 24.3/9.7/10.8/17.2C Hum 99.0% (2026-05-08 01:43:47)
UB3APB-WY>APRS,TCPIP*,qAC,T2RUSSIA2:!4435.05N/04007.56E_000/000t049h99 Temp 24.3/9.4/10.7/17.2C Hum 99.0% (2026-05-08 01:48:54)
UB3APB-WY>APRS,TCPIP*,qAC,T2TROITSK:!4435.05N/04007.56E_000/000t049h99 Temp 24.3/9.4/10.8/17.1C Hum 99.0% (2026-05-08 01:54:00)
UB3APB-WY>APRS,TCPIP*,qAC,T2MOSCOW:!4435.05N/04007.56E_000/000t049h99 Temp 24.3/9.3/10.4/17.1C Hum 99.0% (2026-05-08 01:59:07)
UB3APB-WY>APRS,TCPIP*,qAC,T2ADG:!4435.05N/04007.56E_000/000t048h99 Temp 24.3/9.1/10.4/17.0C Hum 99.0% (2026-05-08 02:04:13)
UB3APB-WY>APRS,TCPIP*,qAC,T2RUSSIA2:!4435.05N/04007.56E_000/000t049h99 Temp 24.3/9.4/10.6/17.0C Hum 99.0% (2026-05-08 02:09:18)
UB3APB-WY>APRS,TCPIP*,qAC,T2TROITSK:!4435.05N/04007.56E_000/000t049h99 Temp 24.2/9.4/10.6/16.9C Hum 99.0% (2026-05-08 02:14:24)
UB3APB-WY>APRS,TCPIP*,qAC,T2MOSCOW:!4435.05N/04007.56E_000/000t049h99 Temp 24.2/9.4/10.6/16.9C Hum 99.0% (2026-05-08 02:19:30)
UB3APB-WY>APRS,TCPIP*,qAC,T2ADG:!4435.05N/04007.56E_000/000t049h99 Temp 24.2/9.5/10.7/16.8C Hum 99.0% (2026-05-08 02:24:36)
UB3APB-WY>APRS,TCPIP*,qAC,T2VENYOV:!4435.05N/04007.56E_000/000t049h99 Temp 24.3/9.4/10.6/16.8C Hum 99.0% (2026-05-08 02:29:43)
UB3APB-WY>APRS,TCPIP*,qAC,T2TROITSK:!4435.05N/04007.56E_000/000t049h99 Temp 24.2/9.3/10.5/16.7C Hum 99.0% (2026-05-08 02:34:49)
UB3APB-WY>APRS,TCPIP*,qAC,T2MOSCOW:!4435.05N/04007.56E_000/000t049h99 Temp 24.2/9.3/10.4/16.7C Hum 99.0% (2026-05-08 02:39:56)
UB3APB-WY>APRS,TCPIP*,qAC,T2ADG:!4435.05N/04007.56E_000/000t049h99 Temp 24.2/9.4/10.5/16.7C Hum 99.0% (2026-05-08 02:45:01)
UB3APB-WY>APRS,TCPIP*,qAC,T2ADG:!4435.05N/04007.56E_000/000t049h99 Temp 24.1/9.4/10.6/16.6C Hum 99.0% (2026-05-08 02:50:07)
UB3APB-WY>APRS,TCPIP*,qAC,T2TROITSK:!4435.05N/04007.56E_000/000t049h99 Temp 24.2/9.4/10.6/16.5C Hum 99.0% (2026-05-08 02:55:13)
UB3APB-WY>APRS,TCPIP*,qAC,T2MOSCOW:!4435.05N/04007.56E_000/000t049h99 Temp 24.1/9.3/10.5/16.5C Hum 99.0% (2026-05-08 03:00:19)
UB3APB-WY>APRS,TCPIP*,qAC,T2ADG:!4435.05N/04007.56E_000/000t049h99 Temp 24.1/9.2/10.3/16.5C Hum 99.0% (2026-05-08 03:05:25)
UB3APB-WY>APRS,TCPIP*,qAC,T2RUSSIA2:!4435.05N/04007.56E_000/000t049h99 Temp 24.2/9.2/10.3/16.4C Hum 99.0% (2026-05-08 03:10:31)
UB3APB-WY>APRS,TCPIP*,qAC,T2MOSCOW:!4435.05N/04007.56E_000/000t048h99 Temp 24.1/9.1/10.2/16.4C Hum 99.0% (2026-05-08 03:15:37)
UB3APB-WY>APRS,TCPIP*,qAC,T2ADG:!4435.05N/04007.56E_000/000t048h99 Temp 24.1/9.1/10.2/16.3C Hum 99.0% (2026-05-08 03:20:43)
UB3APB-WY>APRS,TCPIP*,qAC,T2ADG:!4435.05N/04007.56E_000/000t048h99 Temp 24.1/8.9/10.0/16.3C Hum 99.0% (2026-05-08 03:25:49)
UB3APB-WY>APRS,TCPIP*,qAC,T2MOSCOW:!4435.05N/04007.56E_000/000t048h99 Temp 24.1/9.0/10.0/16.2C Hum 99.0% (2026-05-08 03:30:56)
UB3APB-WY>APRS,TCPIP*,qAC,T2MOSCOW:!4435.05N/04007.56E_000/000t048h99 Temp 24.1/8.9/10.0/16.2C Hum 99.0% (2026-05-08 03:36:02)
UB3APB-WY>APRS,TCPIP*,qAC,T2ADG:!4435.05N/04007.56E_000/000t048h99 Temp 24.1/8.8/9.8/16.1C Hum 99.0% (2026-05-08 03:41:08)
UB3APB-WY>APRS,TCPIP*,qAC,T2ADG:!4435.05N/04007.56E_000/000t048h99 Temp 24.0/8.7/9.8/16.1C Hum 99.0% (2026-05-08 03:46:14)
UB3APB-WY>APRS,TCPIP*,qAC,T2RUSSIA2:!4435.05N/04007.56E_000/000t047h99 Temp 24.0/8.6/9.8/16.1C Hum 99.0% (2026-05-08 03:51:20)
UB3APB-WY>APRS,TCPIP*,qAC,T2ADG:!4435.05N/04007.56E_000/000t048h99 Temp 24.0/8.9/10.0/16.0C Hum 99.0% (2026-05-08 03:56:27)
UB3APB-WY>APRS,TCPIP*,qAC,T2RUSSIA2:!4435.05N/04007.56E_000/000t049h99 Temp 24.0/9.2/10.1/16.0C Hum 99.0% (2026-05-08 04:01:33)
UB3APB-WY>APRS,TCPIP*,qAC,T2VENYOV:!4435.05N/04007.56E_000/000t049h99 Temp 24.0/9.3/10.2/15.9C Hum 99.0% (2026-05-08 04:06:39)
UB3APB-WY>APRS,TCPIP*,qAC,T2ADG:!4435.05N/04007.56E_000/000t049h99 Temp 23.9/9.4/10.4/15.9C Hum 99.0% (2026-05-08 04:11:46)
UB3APB-WY>APRS,TCPIP*,qAC,T2RUSSIA2:!4435.05N/04007.56E_000/000t049h99 Temp 23.9/9.6/10.5/15.8C Hum 99.0% (2026-05-08 04:16:51)
UB3APB-WY>APRS,TCPIP*,qAC,T2MOSCOW:!4435.05N/04007.56E_000/000t049h99 Temp 24.0/9.6/10.4/15.8C Hum 99.0% (2026-05-08 04:21:57)
UB3APB-WY>APRS,TCPIP*,qAC,T2ADG:!4435.05N/04007.56E_000/000t049h99 Temp 24.0/9.5/10.5/15.8C Hum 99.0% (2026-05-08 04:27:04)
UB3APB-WY>APRS,TCPIP*,qAC,T2RUSSIA2:!4435.05N/04007.56E_000/000t049h99 Temp 24.0/9.4/10.4/15.8C Hum 99.0% (2026-05-08 04:32:10)
UB3APB-WY>APRS,TCPIP*,qAC,T2TROITSK:!4435.05N/04007.56E_000/000t049h99 Temp 24.0/9.4/10.4/15.7C Hum 99.0% (2026-05-08 04:37:17)
UB3APB-WY>APRS,TCPIP*,qAC,T2ADG:!4435.05N/04007.56E_000/000t048h99 Temp 23.9/9.1/10.0/15.7C Hum 99.0% (2026-05-08 04:42:23)
UB3APB-WY>APRS,TCPIP*,qAC,T2TROITSK:!4435.05N/04007.56E_000/000t048h99 Temp 23.9/8.9/9.9/15.6C Hum 99.0% (2026-05-08 04:47:29)
UB3APB-WY>APRS,TCPIP*,qAC,T2MOSCOW:!4435.05N/04007.56E_000/000t048h99 Temp 23.9/8.9/9.9/15.6C Hum 99.0% (2026-05-08 04:52:35)
UB3APB-WY>APRS,TCPIP*,qAC,T2VENYOV:!4435.05N/04007.56E_000/000t048h99 Temp 23.9/8.8/9.9/15.6C Hum 99.0% (2026-05-08 04:57:42)
UB3APB-WY>APRS,TCPIP*,qAC,T2ADG:!4435.05N/04007.56E_000/000t048h99 Temp 23.8/8.8/9.9/15.5C Hum 99.0% (2026-05-08 05:02:48)
UB3APB-WY>APRS,TCPIP*,qAC,T2RUSSIA2:!4435.05N/04007.56E_000/000t048h99 Temp 23.8/8.9/9.8/15.5C Hum 99.0% (2026-05-08 05:07:53)
UB3APB-WY>APRS,TCPIP*,qAC,T2VENYOV:!4435.05N/04007.56E_000/000t048h99 Temp 23.9/8.7/9.7/15.5C Hum 99.0% (2026-05-08 05:12:59)
UB3APB-WY>APRS,TCPIP*,qAC,T2MOSCOW:!4435.05N/04007.56E_000/000t048h99 Temp 23.9/8.8/9.7/15.4C Hum 99.0% (2026-05-08 05:18:05)
UB3APB-WY>APRS,TCPIP*,qAC,T2ADG:!4435.05N/04007.56E_000/000t048h99 Temp 23.8/8.7/9.6/15.4C Hum 99.0% (2026-05-08 05:23:12)
UB3APB-WY>APRS,TCPIP*,qAC,T2RUSSIA2:!4435.05N/04007.56E_000/000t047h99 Temp 23.8/8.6/9.6/15.3C Hum 99.0% (2026-05-08 05:28:17)
UB3APB-WY>APRS,TCPIP*,qAC,T2TROITSK:!4435.05N/04007.56E_000/000t047h99 Temp 23.8/8.5/9.5/15.3C Hum 99.0% (2026-05-08 05:33:23)
UB3APB-WY>APRS,TCPIP*,qAC,T2MOSCOW:!4435.05N/04007.56E_000/000t047h99 Temp 23.8/8.5/9.5/15.3C Hum 99.0% (2026-05-08 05:38:29)
UB3APB-WY>APRS,TCPIP*,qAC,T2ADG:!4435.05N/04007.56E_000/000t047h99 Temp 23.9/8.6/9.6/15.2C Hum 99.0% (2026-05-08 05:43:35)
UB3APB-WY>APRS,TCPIP*,qAC,T2TROITSK:!4435.05N/04007.56E_000/000t048h99 Temp 23.8/8.8/9.6/15.2C Hum 99.0% (2026-05-08 05:48:41)
UB3APB-WY>APRS,TCPIP*,qAC,T2ADG:!4435.05N/04007.56E_000/000t048h99 Temp 23.8/8.9/9.6/15.1C Hum 99.0% (2026-05-08 05:53:49)
UB3APB-WY>APRS,TCPIP*,qAC,T2RUSSIA2:!4435.05N/04007.56E_000/000t048h99 Temp 23.7/9.1/9.7/15.1C Hum 99.0% (2026-05-08 05:58:55)
UB3APB-WY>APRS,TCPIP*,qAC,T2VENYOV:!4435.05N/04007.56E_000/000t049h99 Temp 23.7/9.4/9.9/15.1C Hum 99.0% (2026-05-08 06:04:01)
UB3APB-WY>APRS,TCPIP*,qAC,T2TROITSK:!4435.05N/04007.56E_000/000t049h99 Temp 23.7/9.5/9.9/15.0C Hum 99.0% (2026-05-08 06:09:07)
UB3APB-WY>APRS,TCPIP*,qAC,T2MOSCOW:!4435.05N/04007.56E_000/000t049h99 Temp 23.7/9.5/10.0/15.0C Hum 99.0% (2026-05-08 06:14:13)
UB3APB-WY>APRS,TCPIP*,qAC,T2ADG:!4435.05N/04007.56E_000/000t049h99 Temp 23.7/9.5/10.1/15.0C Hum 99.0% (2026-05-08 06:19:19)
UB3APB-WY>APRS,TCPIP*,qAC,T2RUSSIA2:!4435.05N/04007.56E_000/000t049h99 Temp 23.7/9.5/10.1/14.9C Hum 99.0% (2026-05-08 06:24:25)
UB3APB-WY>APRS,TCPIP*,qAC,T2VENYOV:!4435.05N/04007.56E_000/000t050h99 Temp 23.7/9.8/10.2/14.9C Hum 99.0% (2026-05-08 06:29:31)
UB3APB-WY>APRS,TCPIP*,qAC,T2TROITSK:!4435.05N/04007.56E_000/000t050h99 Temp 23.7/10.1/10.4/14.9C Hum 99.0% (2026-05-08 06:34:37)
UB3APB-WY>APRS,TCPIP*,qAC,T2ADG:!4435.05N/04007.56E_000/000t050h99 Temp 23.7/10.2/10.6/14.8C Hum 99.0% (2026-05-08 06:39:43)
UB3APB-WY>APRS,TCPIP*,qAC,T2RUSSIA2:!4435.05N/04007.56E_000/000t051h99 Temp 23.7/10.4/10.8/14.8C Hum 99.0% (2026-05-08 06:44:49)
UB3APB-WY>APRS,TCPIP*,qAC,T2TROITSK:!4435.05N/04007.56E_000/000t051h99 Temp 23.7/10.3/10.9/14.8C Hum 99.0% (2026-05-08 06:49:55)
UB3APB-WY>APRS,TCPIP*,qAC,T2RUSSIA2:!4435.05N/04007.56E_000/000t051h98 Temp 23.7/10.4/10.9/14.8C Hum 98.0% (2026-05-08 06:55:01)
UB3APB-WY>APRS,TCPIP*,qAC,T2VENYOV:!4435.05N/04007.56E_000/000t051h98 Temp 23.7/10.7/11.0/14.8C Hum 98.0% (2026-05-08 07:00:07)
UB3APB-WY>APRS,TCPIP*,qAC,T2TROITSK:!4435.05N/04007.56E_000/000t052h98 Temp 23.6/10.9/11.1/14.8C Hum 98.0% (2026-05-08 07:05:14)
UB3APB-WY>APRS,TCPIP*,qAC,T2ADG:!4435.05N/04007.56E_000/000t052h97 Temp 23.7/11.0/11.3/14.7C Hum 97.0% (2026-05-08 07:10:20)
UB3APB-WY>APRS,TCPIP*,qAC,T2TROITSK:!4435.05N/04007.56E_000/000t052h97 Temp 23.7/11.3/11.4/14.7C Hum 97.0% (2026-05-08 07:15:25)
UB3APB-WY>APRS,TCPIP*,qAC,T2MOSCOW:!4435.05N/04007.56E_000/000t052h96 Temp 23.7/11.2/11.4/14.7C Hum 96.0% (2026-05-08 07:20:31)
UB3APB-WY>APRS,TCPIP*,qAC,T2ADG:!4435.05N/04007.56E_000/000t053h97 Temp 23.7/11.4/11.5/14.6C Hum 97.0% (2026-05-08 07:25:38)
UB3APB-WY>APRS,TCPIP*,qAC,T2RUSSIA2:!4435.05N/04007.56E_000/000t053h96 Temp 23.7/11.6/11.7/14.7C Hum 96.0% (2026-05-08 07:30:44)
UB3APB-WY>APRS,TCPIP*,qAC,T2VENYOV:!4435.05N/04007.56E_000/000t053h96 Temp 23.6/11.6/11.8/14.7C Hum 96.0% (2026-05-08 07:35:50)
UB3APB-WY>APRS,TCPIP*,qAC,T2MOSCOW:!4435.05N/04007.56E_000/000t053h96 Temp 23.7/11.6/11.8/14.6C Hum 96.0% (2026-05-08 07:40:55)
UB3APB-WY>APRS,TCPIP*,qAC,T2ADG:!4435.05N/04007.56E_000/000t053h96 Temp 23.6/11.5/11.8/14.6C Hum 96.0% (2026-05-08 07:46:01)
UB3APB-WY>APRS,TCPIP*,qAC,T2VENYOV:!4435.05N/04007.56E_000/000t053h96 Temp 23.5/11.7/11.9/14.6C Hum 96.0% (2026-05-08 07:51:08)
UB3APB-WY>APRS,TCPIP*,qAC,T2RUSSIA2:!4435.05N/04007.56E_000/000t053h96 Temp 23.6/11.9/12.1/14.6C Hum 96.0% (2026-05-08 07:56:14)
UB3APB-WY>APRS,TCPIP*,qAC,T2MOSCOW:!4435.05N/04007.56E_000/000t054h96 Temp 23.6/12.1/12.2/14.6C Hum 96.0% (2026-05-08 08:01:20)
UB3APB-WY>APRS,TCPIP*,qAC,T2TROITSK:!4435.05N/04007.56E_000/000t054h96 Temp 23.6/12.1/12.3/14.6C Hum 96.0% (2026-05-08 08:06:26)
UB3APB-WY>APRS,TCPIP*,qAC,T2VENYOV:!4435.05N/04007.56E_000/000t054h96 Temp 23.7/12.3/12.4/14.6C Hum 96.0% (2026-05-08 08:11:31)
UB3APB-WY>APRS,TCPIP*,qAC,T2RUSSIA2:!4435.05N/04007.56E_000/000t054h94 Temp 23.7/12.5/12.5/14.6C Hum 94.0% (2026-05-08 08:16:37)
UB3APB-WY>APRS,TCPIP*,qAC,T2MOSCOW:!4435.05N/04007.56E_000/000t056h94 Temp 23.7/13.1/12.8/14.6C Hum 94.0% (2026-05-08 08:21:44)
UB3APB-WY>APRS,TCPIP*,qAC,T2RUSSIA2:!4435.05N/04007.56E_000/000t056h92 Temp 23.7/13.6/13.3/14.6C Hum 92.0% (2026-05-08 08:26:49)
UB3APB-WY>APRS,TCPIP*,qAC,T2RUSSIA2:!4435.05N/04007.56E_000/000t057h89 Temp 23.7/13.8/13.5/14.6C Hum 89.0% (2026-05-08 08:31:55)
UB3APB-WY>APRS,TCPIP*,qAC,T2RUSSIA2:!4435.05N/04007.56E_000/000t057h89 Temp 23.7/13.9/13.8/14.6C Hum 89.0% (2026-05-08 08:37:02)
UB3APB-WY>APRS,TCPIP*,qAC,T2ADG:!4435.05N/04007.56E_000/000t058h87 Temp 23.8/14.4/14.3/14.6C Hum 87.0% (2026-05-08 08:42:08)
UB3APB-WY>APRS,TCPIP*,qAC,T2MOSCOW:!4435.05N/04007.56E_000/000t058h86 Temp 23.7/14.5/14.2/14.7C Hum 86.0% (2026-05-08 08:47:14)
UB3APB-WY>APRS,TCPIP*,qAC,T2ADG:!4435.05N/04007.56E_000/000t058h86 Temp 23.8/14.5/14.5/14.7C Hum 86.0% (2026-05-08 08:52:20)
UB3APB-WY>APRS,TCPIP*,qAC,T2VENYOV:!4435.05N/04007.56E_000/000t059h87 Temp 23.8/14.9/14.7/14.8C Hum 87.0% (2026-05-08 08:57:26)
UB3APB-WY>APRS,TCPIP*,qAC,T2MOSCOW:!4435.05N/04007.56E_000/000t061h84 Temp 23.8/16.1/15.7/14.9C Hum 84.0% (2026-05-08 09:02:32)
UB3APB-WY>APRS,TCPIP*,qAC,T2TROITSK:!4435.05N/04007.56E_000/000t061h81 Temp 23.8/16.0/15.7/15.1C Hum 81.0% (2026-05-08 09:07:39)
UB3APB-WY>APRS,TCPIP*,qAC,T2ADG:!4435.05N/04007.56E_000/000t061h80 Temp 23.8/16.2/15.7/15.1C Hum 80.0% (2026-05-08 09:12:45)
UB3APB-WY>APRS,TCPIP*,qAC,T2VENYOV:!4435.05N/04007.56E_000/000t061h76 Temp 23.9/16.1/15.9/15.0C Hum 76.0% (2026-05-08 09:17:51)
UB3APB-WY>APRS,TCPIP*,qAC,T2TROITSK:!4435.05N/04007.56E_000/000t062h76 Temp 23.9/16.5/16.1/15.0C Hum 76.0% (2026-05-08 09:22:57)
UB3APB-WY>APRS,TCPIP*,qAC,T2ADG:!4435.05N/04007.56E_000/000t062h76 Temp 23.9/16.9/16.5/15.0C Hum 76.0% (2026-05-08 09:28:03)
UB3APB-WY>APRS,TCPIP*,qAC,T2RUSSIA2:!4435.05N/04007.56E_000/000t064h71 Temp 23.9/17.8/17.6/15.3C Hum 71.0% (2026-05-08 09:33:09)
UB3APB-WY>APRS,TCPIP*,qAC,T2VENYOV:!4435.05N/04007.56E_000/000t063h69 Temp 24.0/17.4/18.1/15.5C Hum 69.0% (2026-05-08 09:38:16)
UB3APB-WY>APRS,TCPIP*,qAC,T2RUSSIA2:!4435.05N/04007.56E_000/000t064h69 Temp 24.1/17.8/17.6/15.7C Hum 69.0% (2026-05-08 09:43:22)
UB3APB-WY>APRS,TCPIP*,qAC,T2MOSCOW:!4435.05N/04007.56E_000/000t065h70 Temp 24.1/18.4/17.8/15.7C Hum 70.0% (2026-05-08 09:48:28)
UB3APB-WY>APRS,TCPIP*,qAC,T2ADG:!4435.05N/04007.56E_000/000t065h68 Temp 24.1/18.4/18.7/15.8C Hum 68.0% (2026-05-08 09:53:35)
UB3APB-WY>APRS,TCPIP*,qAC,T2VENYOV:!4435.05N/04007.56E_000/000t066h67 Temp 24.1/18.9/18.6/16.0C Hum 67.0% (2026-05-08 09:58:41)
UB3APB-WY>APRS,TCPIP*,qAC,T2TROITSK:!4435.05N/04007.56E_000/000t065h66 Temp 24.1/18.4/18.3/15.9C Hum 66.0% (2026-05-08 10:03:48)
UB3APB-WY>APRS,TCPIP*,qAC,T2MOSCOW:!4435.05N/04007.56E_000/000t065h69 Temp 24.1/18.6/18.6/15.8C Hum 69.0% (2026-05-08 10:08:54)
UB3APB-WY>APRS,TCPIP*,qAC,T2RUSSIA2:!4435.05N/04007.56E_000/000t067h70 Temp 24.1/19.4/18.7/15.8C Hum 70.0% (2026-05-08 10:14:00)
UB3APB-WY>APRS,TCPIP*,qAC,T2TROITSK:!4435.05N/04007.56E_000/000t066h69 Temp 24.1/19.1/18.8/15.8C Hum 69.0% (2026-05-08 10:19:06)
UB3APB-WY>APRS,TCPIP*,qAC,T2MOSCOW:!4435.05N/04007.56E_000/000t067h69 Temp 24.1/19.3/18.6/15.8C Hum 69.0% (2026-05-08 10:24:12)
UB3APB-WY>APRS,TCPIP*,qAC,T2VENYOV:!4435.05N/04007.56E_000/000t066h70 Temp 24.1/18.9/18.6/15.8C Hum 70.0% (2026-05-08 10:29:18)
UB3APB-WY>APRS,TCPIP*,qAC,T2ADG:!4435.05N/04007.56E_000/000t065h68 Temp 24.1/18.4/18.3/15.8C Hum 68.0% (2026-05-08 10:34:25)
UB3APB-WY>APRS,TCPIP*,qAC,T2ADG:!4435.05N/04007.56E_000/000t066h71 Temp 24.0/18.7/18.2/16.0C Hum 71.0% (2026-05-08 10:39:31)
UB3APB-WY>APRS,TCPIP*,qAC,T2RUSSIA2:!4435.05N/04007.56E_000/000t066h74 Temp 24.1/18.7/18.3/16.0C Hum 74.0% (2026-05-08 10:44:37)
UB3APB-WY>APRS,TCPIP*,qAC,T2TROITSK:!4435.05N/04007.56E_000/000t065h73 Temp 23.9/18.5/18.3/16.0C Hum 73.0% (2026-05-08 10:49:42)
UB3APB-WY>APRS,TCPIP*,qAC,T2MOSCOW:!4435.05N/04007.56E_000/000t066h71 Temp 24.0/18.8/18.2/15.9C Hum 71.0% (2026-05-08 10:54:49)
UB3APB-WY>APRS,TCPIP*,qAC,T2RUSSIA2:!4435.05N/04007.56E_000/000t066h72 Temp 23.9/18.9/18.7/16.0C Hum 72.0% (2026-05-08 10:59:54)
UB3APB-WY>APRS,TCPIP*,qAC,T2VENYOV:!4435.05N/04007.56E_000/000t067h70 Temp 24.0/19.2/18.9/16.1C Hum 70.0% (2026-05-08 11:05:01)
UB3APB-WY>APRS,TCPIP*,qAC,T2RUSSIA2:!4435.05N/04007.56E_000/000t067h67 Temp 24.1/19.4/19.3/16.2C Hum 67.0% (2026-05-08 11:10:08)
UB3APB-WY>APRS,TCPIP*,qAC,T2MOSCOW:!4435.05N/04007.56E_000/000t069h67 Temp 24.1/20.5/20.2/16.3C Hum 67.0% (2026-05-08 11:15:14)
UB3APB-WY>APRS,TCPIP*,qAC,T2TROITSK:!4435.05N/04007.56E_000/000t068h59 Temp 24.2/19.9/20.3/16.3C Hum 59.0% (2026-05-08 11:20:20)
UB3APB-WY>APRS,TCPIP*,qAC,T2ADG:!4435.05N/04007.56E_000/000t069h64 Temp 24.2/20.3/20.2/16.3C Hum 64.0% (2026-05-08 11:25:26)
UB3APB-WY>APRS,TCPIP*,qAC,T2VENYOV:!4435.05N/04007.56E_000/000t069h63 Temp 24.3/20.4/20.6/16.4C Hum 63.0% (2026-05-08 11:30:31)
UB3APB-WY>APRS,TCPIP*,qAC,T2MOSCOW:!4435.05N/04007.56E_000/000t069h59 Temp 24.3/20.4/21.0/16.5C Hum 59.0% (2026-05-08 11:35:38)
UB3APB-WY>APRS,TCPIP*,qAC,T2ADG:!4435.05N/04007.56E_000/000t069h56 Temp 24.4/20.8/21.3/16.8C Hum 56.0% (2026-05-08 11:40:45)
UB3APB-WY>APRS,TCPIP*,qAC,T2VENYOV:!4435.05N/04007.56E_000/000t069h53 Temp 24.3/20.5/20.6/16.8C Hum 53.0% (2026-05-08 11:45:51)
UB3APB-WY>APRS,TCPIP*,qAC,T2MOSCOW:!4435.05N/04007.56E_000/000t070h55 Temp 24.4/20.9/20.9/16.8C Hum 55.0% (2026-05-08 11:50:57)
UB3APB-WY>APRS,TCPIP*,qAC,T2RUSSIA2:!4435.05N/04007.56E_000/000t070h56 Temp 24.5/21.1/21.2/17.0C Hum 56.0% (2026-05-08 11:56:04)
UB3APB-WY>APRS,TCPIP*,qAC,T2MOSCOW:!4435.05N/04007.56E_000/000t070h55 Temp 24.4/21.1/21.2/17.0C Hum 55.0% (2026-05-08 12:01:10)
UB3APB-WY>APRS,TCPIP*,qAC,T2ADG:!4435.05N/04007.56E_000/000t071h58 Temp 24.5/21.4/22.1/17.0C Hum 58.0% (2026-05-08 12:06:16)
UB3APB-WY>APRS,TCPIP*,qAC,T2TROITSK:!4435.05N/04007.56E_000/000t071h55 Temp 24.5/21.4/21.6/17.3C Hum 55.0% (2026-05-08 12:11:22)
UB3APB-WY>APRS,TCPIP*,qAC,T2VENYOV:!4435.05N/04007.56E_000/000t070h54 Temp 24.7/21.2/21.2/17.3C Hum 54.0% (2026-05-08 12:16:29)
UB3APB-WY>APRS,TCPIP*,qAC,T2TROITSK:!4435.05N/04007.56E_000/000t070h54 Temp 24.6/20.9/21.2/17.5C Hum 54.0% (2026-05-08 12:21:36)
UB3APB-WY>APRS,TCPIP*,qAC,T2ADG:!4435.05N/04007.56E_000/000t071h54 Temp 24.6/21.5/21.3/17.4C Hum 54.0% (2026-05-08 12:26:42)
UB3APB-WY>APRS,TCPIP*,qAC,T2VENYOV:!4435.05N/04007.56E_000/000t071h54 Temp 24.6/21.4/21.9/17.4C Hum 54.0% (2026-05-08 12:31:48)
UB3APB-WY>APRS,TCPIP*,qAC,T2TROITSK:!4435.05N/04007.56E_000/000t071h53 Temp 24.8/21.5/22.1/17.4C Hum 53.0% (2026-05-08 12:36:54)
UB3APB-WY>APRS,TCPIP*,qAC,T2ADG:!4435.05N/04007.56E_000/000t072h52 Temp 24.7/22.1/22.1/17.5C Hum 52.0% (2026-05-08 12:42:00)
UB3APB-WY>APRS,TCPIP*,qAC,T2RUSSIA2:!4435.05N/04007.56E_000/000t071h51 Temp 24.7/21.6/22.3/17.6C Hum 51.0% (2026-05-08 12:47:06)
UB3APB-WY>APRS,TCPIP*,qAC,T2VENYOV:!4435.05N/04007.56E_000/000t072h50 Temp 24.7/22.0/22.3/17.7C Hum 50.0% (2026-05-08 12:52:11)
UB3APB-WY>APRS,TCPIP*,qAC,T2VENYOV:!4435.05N/04007.56E_000/000t071h50 Temp 24.7/21.4/22.0/17.8C Hum 50.0% (2026-05-08 12:57:17)
UB3APB-WY>APRS,TCPIP*,qAC,T2TROITSK:!4435.05N/04007.56E_000/000t072h51 Temp 24.9/22.3/22.6/17.8C Hum 51.0% (2026-05-08 13:02:24)
UB3APB-WY>APRS,TCPIP*,qAC,T2ADG:!4435.05N/04007.56E_000/000t071h51 Temp 24.8/21.9/22.2/18.1C Hum 51.0% (2026-05-08 13:07:30)
UB3APB-WY>APRS,TCPIP*,qAC,T2VENYOV:!4435.05N/04007.56E_000/000t072h49 Temp 24.8/22.4/22.5/18.2C Hum 49.0% (2026-05-08 13:12:36)
UB3APB-WY>APRS,TCPIP*,qAC,T2TROITSK:!4435.05N/04007.56E_000/000t072h52 Temp 24.9/22.2/22.3/18.2C Hum 52.0% (2026-05-08 13:17:42)
UB3APB-WY>APRS,TCPIP*,qAC,T2VENYOV:!4435.05N/04007.56E_000/000t072h51 Temp 24.9/22.1/22.6/18.3C Hum 51.0% (2026-05-08 13:22:48)
UB3APB-WY>APRS,TCPIP*,qAC,T2TROITSK:!4435.05N/04007.56E_000/000t072h48 Temp 24.9/22.2/23.3/18.4C Hum 48.0% (2026-05-08 13:27:54)
UB3APB-WY>APRS,TCPIP*,qAC,T2ADG:!4435.05N/04007.56E_000/000t073h50 Temp 24.9/22.6/23.2/18.4C Hum 50.0% (2026-05-08 13:33:00)
UB3APB-WY>APRS,TCPIP*,qAC,T2MOSCOW:!4435.05N/04007.56E_000/000t072h50 Temp 25.0/22.3/23.2/18.6C Hum 50.0% (2026-05-08 13:38:05)
UB3APB-WY>APRS,TCPIP*,qAC,T2VENYOV:!4435.05N/04007.56E_000/000t072h51 Temp 25.0/22.5/23.3/18.6C Hum 51.0% (2026-05-08 13:43:11)
UB3APB-WY>APRS,TCPIP*,qAC,T2TROITSK:!4435.05N/04007.56E_000/000t073h50 Temp 25.0/23.0/23.3/18.9C Hum 50.0% (2026-05-08 13:48:17)
UB3APB-WY>APRS,TCPIP*,qAC,T2ADG:!4435.05N/04007.56E_000/000t073h49 Temp 25.0/22.8/23.4/18.8C Hum 49.0% (2026-05-08 13:53:23)
UB3APB-WY>APRS,TCPIP*,qAC,T2MOSCOW:!4435.05N/04007.56E_000/000t073h48 Temp 25.0/22.9/23.2/19.0C Hum 48.0% (2026-05-08 13:58:29)
UB3APB-WY>APRS,TCPIP*,qAC,T2VENYOV:!4435.05N/04007.56E_000/000t072h48 Temp 25.0/22.1/23.0/19.0C Hum 48.0% (2026-05-08 14:03:35)
UB3APB-WY>APRS,TCPIP*,qAC,T2RUSSIA2:!4435.05N/04007.56E_000/000t074h46 Temp 25.1/23.1/23.9/19.0C Hum 46.0% (2026-05-08 14:08:41)
UB3APB-WY>APRS,TCPIP*,qAC,T2VENYOV:!4435.05N/04007.56E_000/000t074h46 Temp 25.0/23.4/24.1/19.2C Hum 46.0% (2026-05-08 14:13:48)
UB3APB-WY>APRS,TCPIP*,qAC,T2RUSSIA2:!4435.05N/04007.56E_000/000t074h44 Temp 25.1/23.3/23.7/19.2C Hum 44.0% (2026-05-08 14:18:53)
UB3APB-WY>APRS,TCPIP*,qAC,T2ADG:!4435.05N/04007.56E_000/000t073h45 Temp 25.1/23.0/23.3/19.3C Hum 45.0% (2026-05-08 14:23:59)
UB3APB-WY>APRS,TCPIP*,qAC,T2VENYOV:!4435.05N/04007.56E_000/000t074h45 Temp 25.1/23.3/23.6/19.4C Hum 45.0% (2026-05-08 14:29:04)
UB3APB-WY>APRS,TCPIP*,qAC,T2TROITSK:!4435.05N/04007.56E_000/000t074h44 Temp 25.1/23.3/23.6/19.5C Hum 44.0% (2026-05-08 14:34:11)
UB3APB-WY>APRS,TCPIP*,qAC,T2MOSCOW:!4435.05N/04007.56E_000/000t074h44 Temp 25.1/23.5/23.9/19.7C Hum 44.0% (2026-05-08 14:39:17)
UB3APB-WY>APRS,TCPIP*,qAC,T2RUSSIA2:!4435.05N/04007.56E_000/000t074h47 Temp 25.1/23.3/23.5/19.7C Hum 47.0% (2026-05-08 14:44:23)
UB3APB-WY>APRS,TCPIP*,qAC,T2MOSCOW:!4435.05N/04007.56E_000/000t074h45 Temp 25.2/23.4/23.7/19.8C Hum 45.0% (2026-05-08 14:49:28)
UB3APB-WY>APRS,TCPIP*,qAC,T2ADG:!4435.05N/04007.56E_000/000t074h46 Temp 25.2/23.6/23.9/19.8C Hum 46.0% (2026-05-08 14:54:35)
UB3APB-WY>APRS,TCPIP*,qAC,T2TROITSK:!4435.05N/04007.56E_000/000t074h43 Temp 25.1/23.4/23.9/19.9C Hum 43.0% (2026-05-08 14:59:41)
UB3APB-WY>APRS,TCPIP*,qAC,T2ADG:!4435.05N/04007.56E_000/000t074h42 Temp 25.1/23.5/23.9/20.0C Hum 42.0% (2026-05-08 15:04:47)
UB3APB-WY>APRS,TCPIP*,qAC,T2RUSSIA2:!4435.05N/04007.56E_000/000t074h43 Temp 25.1/23.3/23.6/20.0C Hum 43.0% (2026-05-08 15:09:53)
UB3APB-WY>APRS,TCPIP*,qAC,T2TROITSK:!4435.05N/04007.56E_000/000t073h40 Temp 25.1/22.9/23.3/20.2C Hum 40.0% (2026-05-08 15:14:59)
UB3APB-WY>APRS,TCPIP*,qAC,T2MOSCOW:!4435.05N/04007.56E_000/000t074h42 Temp 25.1/23.3/23.9/20.1C Hum 42.0% (2026-05-08 15:20:05)
UB3APB-WY>APRS,TCPIP*,qAC,T2RUSSIA2:!4435.05N/04007.56E_000/000t074h43 Temp 25.1/23.4/23.6/20.2C Hum 43.0% (2026-05-08 15:25:13)
UB3APB-WY>APRS,TCPIP*,qAC,T2TROITSK:!4435.05N/04007.56E_000/000t074h43 Temp 25.1/23.3/23.9/20.2C Hum 43.0% (2026-05-08 15:30:19)
UB3APB-WY>APRS,TCPIP*,qAC,T2RUSSIA2:!4435.05N/04007.56E_000/000t074h41 Temp 25.1/23.2/23.5/20.2C Hum 41.0% (2026-05-08 15:35:25)
UB3APB-WY>APRS,TCPIP*,qAC,T2VENYOV:!4435.05N/04007.56E_000/000t074h40 Temp 25.1/23.1/23.6/20.3C Hum 40.0% (2026-05-08 15:40:31)
UB3APB-WY>APRS,TCPIP*,qAC,T2MOSCOW:!4435.05N/04007.56E_000/000t074h42 Temp 25.1/23.3/23.9/20.3C Hum 42.0% (2026-05-08 15:45:37)
UB3APB-WY>APRS,TCPIP*,qAC,T2TROITSK:!4435.05N/04007.56E_000/000t074h42 Temp 25.0/23.4/24.1/20.4C Hum 42.0% (2026-05-08 15:50:44)
UB3APB-WY>APRS,TCPIP*,qAC,T2MOSCOW:!4435.05N/04007.56E_000/000t074h44 Temp 25.0/23.2/23.4/20.5C Hum 44.0% (2026-05-08 15:55:50)
UB3APB-WY>APRS,TCPIP*,qAC,T2RUSSIA2:!4435.05N/04007.56E_000/000t075h40 Temp 25.0/23.7/23.7/20.6C Hum 40.0% (2026-05-08 16:00:57)
UB3APB-WY>APRS,TCPIP*,qAC,T2TROITSK:!4435.05N/04007.56E_000/000t074h43 Temp 25.1/23.3/23.8/20.6C Hum 43.0% (2026-05-08 16:06:03)
UB3APB-WY>APRS,TCPIP*,qAC,T2VENYOV:!4435.05N/04007.56E_000/000t074h42 Temp 25.0/23.2/23.6/20.7C Hum 42.0% (2026-05-08 16:11:09)
UB3APB-WY>APRS,TCPIP*,qAC,T2MOSCOW:!4435.05N/04007.56E_000/000t074h42 Temp 25.0/23.4/23.6/20.8C Hum 42.0% (2026-05-08 16:16:15)